createdAt,value
2023-04-12T00:01:16.158Z,11.49
2023-04-12T00:03:20.792Z,11.46
2023-04-12T00:05:27.113Z,11.41
2023-04-12T00:07:30.101Z,11.32
2023-04-12T00:09:36.296Z,11.36
2023-04-12T00:11:40.465Z,11.37
2023-04-12T00:13:43.305Z,11.33
2023-04-12T00:15:46.217Z,11.33
2023-04-12T00:17:49.177Z,11.32
2023-04-12T00:19:52.287Z,11.25
2023-04-12T00:21:55.141Z,11.26
2023-04-12T00:23:58.279Z,11.28
2023-04-12T00:26:01.205Z,11.26
2023-04-12T00:28:05.506Z,11.27
2023-04-12T00:30:09.359Z,11.21
2023-04-12T00:32:12.164Z,11.21
2023-04-12T00:34:15.731Z,11.19
2023-04-12T00:36:18.623Z,11.18
2023-04-12T00:38:21.488Z,11.16
2023-04-12T00:40:24.302Z,11.13
2023-04-12T00:42:27.624Z,11.07
2023-04-12T00:44:32.780Z,11.11
2023-04-12T00:46:35.697Z,11.11
2023-04-12T00:48:39.446Z,11.13
2023-04-12T00:50:44.644Z,11.07
2023-04-12T00:52:47.685Z,11.02
2023-04-12T00:54:51.869Z,10.93
2023-04-12T00:56:54.694Z,10.91
2023-04-12T00:58:58.655Z,10.67
2023-04-12T01:01:02.906Z,10.57
2023-04-12T01:03:08.369Z,10.50
2023-04-12T01:05:14.760Z,10.36
2023-04-12T01:07:37.269Z,10.51
2023-04-12T01:09:51.342Z,10.58
2023-04-12T01:12:07.878Z,10.68
2023-04-12T01:14:16.636Z,10.51
2023-04-12T01:16:29.309Z,10.48
2023-04-12T01:18:40.791Z,10.51
2023-04-12T01:20:52.514Z,10.55
2023-04-12T01:23:13.533Z,10.57
2023-04-12T01:25:34.199Z,10.56
2023-04-12T01:27:44.326Z,10.60
2023-04-12T01:29:51.352Z,10.58
2023-04-12T01:31:57.905Z,10.52
2023-04-12T01:34:03.897Z,10.50
2023-04-12T01:36:12.848Z,10.50
2023-04-12T01:38:16.089Z,10.48
2023-04-12T01:40:20.538Z,10.41
2023-04-12T01:42:23.402Z,10.44
2023-04-12T01:44:27.616Z,10.41
2023-04-12T01:46:32.345Z,10.42
2023-04-12T01:48:35.732Z,10.26
2023-04-12T01:50:45.960Z,10.27
2023-04-12T01:52:55.081Z,10.31
2023-04-12T01:55:00.746Z,10.30
2023-04-12T01:57:06.020Z,10.26
2023-04-12T01:59:10.266Z,10.31
2023-04-12T02:01:16.435Z,10.41
2023-04-12T02:03:23.230Z,10.38
2023-04-12T02:05:26.392Z,10.29
2023-04-12T02:07:29.742Z,10.30
2023-04-12T02:09:37.790Z,10.23
2023-04-12T02:11:41.398Z,10.18
2023-04-12T02:13:46.249Z,10.20
2023-04-12T02:15:54.419Z,10.20
2023-04-12T02:17:59.510Z,10.17
2023-04-12T02:20:02.367Z,10.16
2023-04-12T02:22:08.076Z,10.15
2023-04-12T02:24:11.628Z,10.13
2023-04-12T02:26:14.412Z,10.14
2023-04-12T02:28:17.188Z,10.07
2023-04-12T02:30:20.303Z,10.02
2023-04-12T02:32:27.697Z,10.08
2023-04-12T02:34:34.366Z,10.10
2023-04-12T02:36:47.975Z,10.02
2023-04-12T02:38:51.712Z,10.05
2023-04-12T02:40:55.977Z,10.08
2023-04-12T02:42:58.772Z,10.04
2023-04-12T02:45:02.687Z,10.06
2023-04-12T02:47:05.615Z,9.99
2023-04-12T02:49:10.084Z,10.00
2023-04-12T02:51:18.723Z,10.07
2023-04-12T02:53:25.178Z,10.04
2023-04-12T02:55:51.097Z,10.08
2023-04-12T02:57:59.085Z,9.95
2023-04-12T03:00:01.957Z,9.89
2023-04-12T03:02:13.198Z,9.90
2023-04-12T03:04:16.326Z,9.89
2023-04-12T03:06:26.330Z,9.94
2023-04-12T03:08:29.222Z,9.98
2023-04-12T03:10:33.622Z,9.95
2023-04-12T03:12:38.402Z,9.85
2023-04-12T03:14:56.895Z,9.84
2023-04-12T03:17:02.371Z,9.86
2023-04-12T03:19:06.264Z,9.91
2023-04-12T03:21:09.098Z,9.88
2023-04-12T03:23:13.420Z,9.90
2023-04-12T03:25:21.036Z,9.82
2023-04-12T03:27:30.312Z,9.83
2023-04-12T03:29:33.478Z,9.84
2023-04-12T03:31:37.221Z,9.83
2023-04-12T03:33:43.692Z,9.83
2023-04-12T03:36:01.196Z,9.82
2023-04-12T03:38:06.725Z,9.80
2023-04-12T03:40:11.749Z,9.75
2023-04-12T03:42:31.839Z,9.78
2023-04-12T03:44:39.875Z,9.79
2023-04-12T03:46:46.947Z,9.76
2023-04-12T03:48:50.702Z,9.70
2023-04-12T03:50:54.491Z,9.66
2023-04-12T03:52:58.917Z,9.72
2023-04-12T03:55:08.320Z,9.74
2023-04-12T03:57:13.674Z,9.73
2023-04-12T03:59:23.582Z,9.74
2023-04-12T04:01:26.734Z,9.81
2023-04-12T04:03:30.339Z,9.78
2023-04-12T04:05:44.227Z,9.81
2023-04-12T04:07:51.092Z,9.83
2023-04-12T04:09:55.148Z,9.85
2023-04-12T04:11:59.176Z,9.89
2023-04-12T04:14:03.873Z,9.84
2023-04-12T04:16:09.500Z,9.76
2023-04-12T04:18:12.636Z,9.74
2023-04-12T04:20:16.066Z,9.69
2023-04-12T04:22:23.657Z,9.70
2023-04-12T04:24:29.146Z,9.67
2023-04-12T04:26:38.198Z,9.72
2023-04-12T04:28:47.549Z,9.61
2023-04-12T04:30:56.099Z,9.59
2023-04-12T04:32:59.897Z,9.61
2023-04-12T04:35:03.617Z,9.52
2023-04-12T04:37:17.372Z,9.52
2023-04-12T04:39:21.617Z,9.44
2023-04-12T04:41:24.557Z,9.59
2023-04-12T04:43:35.261Z,9.54
2023-04-12T04:45:41.286Z,9.51
2023-04-12T04:47:45.827Z,9.51
2023-04-12T04:49:49.795Z,9.52
2023-04-12T04:52:10.404Z,9.62
2023-04-12T04:54:14.051Z,9.63
2023-04-12T04:56:18.161Z,9.61
2023-04-12T04:58:25.572Z,9.58
2023-04-12T05:00:28.863Z,9.72
2023-04-12T05:02:33.536Z,9.63
2023-04-12T05:04:38.020Z,9.55
2023-04-12T05:06:40.986Z,9.51
2023-04-12T05:08:45.623Z,9.49
2023-04-12T05:10:52.314Z,9.52
2023-04-12T05:12:56.660Z,9.50
2023-04-12T05:15:11.207Z,9.57
2023-04-12T05:17:15.961Z,9.37
2023-04-12T05:19:18.756Z,9.48
2023-04-12T05:21:24.206Z,9.55
2023-04-12T05:23:27.404Z,9.54
2023-04-12T05:25:30.764Z,9.53
2023-04-12T05:27:39.929Z,9.53
2023-04-12T05:29:44.554Z,9.50
2023-04-12T05:31:47.393Z,9.44
2023-04-12T05:33:55.483Z,9.52
2023-04-12T05:36:03.783Z,9.51
2023-04-12T05:38:08.642Z,9.48
2023-04-12T05:40:11.995Z,9.48
2023-04-12T05:42:14.755Z,9.47
2023-04-12T05:44:17.873Z,9.52
2023-04-12T05:46:20.846Z,9.44
2023-04-12T05:48:26.387Z,9.46
2023-04-12T05:50:31.651Z,9.36
2023-04-12T05:52:34.584Z,9.47
2023-04-12T05:54:39.627Z,9.51
2023-04-12T05:56:44.044Z,9.46
2023-04-12T05:58:48.158Z,9.48
2023-04-12T06:00:51.413Z,9.47
2023-04-12T06:02:54.933Z,9.50
2023-04-12T06:04:58.263Z,9.56
2023-04-12T06:07:03.652Z,9.39
2023-04-12T06:09:06.406Z,9.36
2023-04-12T06:11:12.053Z,9.42
2023-04-12T06:13:15.282Z,9.55
2023-04-12T06:15:19.888Z,9.55
2023-04-12T06:17:26.590Z,9.49
2023-04-12T06:19:29.461Z,9.52
2023-04-12T06:21:32.340Z,9.64
2023-04-12T06:23:35.227Z,9.68
2023-04-12T06:25:38.714Z,9.71
2023-04-12T06:27:43.098Z,9.60
2023-04-12T06:29:46.361Z,9.57
2023-04-12T06:31:49.416Z,9.54
2023-04-12T06:33:52.279Z,9.53
2023-04-12T06:35:55.232Z,9.53
2023-04-12T06:37:59.386Z,9.64
2023-04-12T06:40:02.139Z,9.55
2023-04-12T06:42:05.199Z,9.61
2023-04-12T06:44:09.405Z,9.63
2023-04-12T06:46:12.140Z,9.53
2023-04-12T06:48:14.889Z,9.56
2023-04-12T06:50:18.473Z,9.66
2023-04-12T06:52:21.569Z,9.68
2023-04-12T06:54:24.334Z,9.65
2023-04-12T06:56:27.056Z,9.72
2023-04-12T06:58:30.771Z,9.84
2023-04-12T07:00:35.028Z,9.74
2023-04-12T07:02:39.021Z,9.72
2023-04-12T07:04:41.896Z,9.73
2023-04-12T07:06:44.775Z,9.73
2023-04-12T07:08:48.260Z,9.83
2023-04-12T07:10:54.575Z,9.88
2023-04-12T07:12:59.089Z,9.89
2023-04-12T07:15:01.874Z,9.98
2023-04-12T07:17:06.176Z,9.94
2023-04-12T07:19:08.927Z,9.89
2023-04-12T07:21:14.214Z,9.89
2023-04-12T07:23:17.272Z,9.96
2023-04-12T07:25:19.981Z,9.99
2023-04-12T07:27:22.728Z,10.06
2023-04-12T07:29:25.671Z,10.09
2023-04-12T07:31:30.478Z,10.05
2023-04-12T07:33:35.716Z,10.09
2023-04-12T07:35:38.789Z,10.07
2023-04-12T07:37:41.550Z,10.03
2023-04-12T07:39:44.357Z,10.14
2023-04-12T07:41:48.329Z,10.14
2023-04-12T07:43:51.487Z,10.14
2023-04-12T07:45:55.624Z,10.10
2023-04-12T07:47:58.432Z,10.13
2023-04-12T07:50:03.956Z,10.14
2023-04-12T07:52:07.287Z,10.10
2023-04-12T07:54:10.154Z,10.11
2023-04-12T07:56:13.049Z,10.14
2023-04-12T07:58:16.863Z,10.18
2023-04-12T08:00:20.586Z,10.14
2023-04-12T08:02:26.065Z,10.18
2023-04-12T08:04:29.091Z,10.18
2023-04-12T08:06:34.442Z,10.22
2023-04-12T08:08:37.359Z,10.20
2023-04-12T08:10:40.747Z,10.27
2023-04-12T08:12:43.532Z,10.39
2023-04-12T08:14:46.339Z,10.38
2023-04-12T08:16:49.607Z,10.36
2023-04-12T08:18:52.342Z,10.33
2023-04-12T08:20:55.290Z,10.41
2023-04-12T08:22:59.722Z,10.40
2023-04-12T08:25:02.583Z,10.44
2023-04-12T08:27:05.437Z,10.57
2023-04-12T08:29:08.306Z,10.61
2023-04-12T08:31:11.456Z,10.69
2023-04-12T08:33:14.237Z,10.72
2023-04-12T08:35:17.004Z,10.78
2023-04-12T08:37:19.829Z,10.92
2023-04-12T08:39:24.203Z,10.92
2023-04-12T08:41:27.363Z,11.12
2023-04-12T08:43:32.801Z,11.11
2023-04-12T08:45:36.864Z,11.04
2023-04-12T08:47:41.666Z,11.07
2023-04-12T08:49:44.531Z,11.00
2023-04-12T08:51:47.596Z,11.04
2023-04-12T08:53:51.038Z,11.05
2023-04-12T08:55:55.415Z,11.11
2023-04-12T08:57:59.849Z,11.15
2023-04-12T09:00:03.816Z,11.15
2023-04-12T09:02:06.719Z,11.05
2023-04-12T09:04:09.883Z,11.15
2023-04-12T09:06:13.447Z,11.17
2023-04-12T09:08:17.381Z,11.20
2023-04-12T09:10:32.497Z,11.34
2023-04-12T09:12:36.833Z,11.15
2023-04-12T09:14:40.552Z,11.15
2023-04-12T09:16:43.670Z,11.29
2023-04-12T09:18:50.425Z,11.32
2023-04-12T09:21:07.608Z,11.33
2023-04-12T09:23:20.895Z,11.42
2023-04-12T09:25:48.159Z,11.51
2023-04-12T09:27:54.187Z,11.45
2023-04-12T09:30:08.127Z,11.62
2023-04-12T09:32:10.991Z,11.62
2023-04-12T09:34:13.793Z,11.59
2023-04-12T09:36:18.882Z,11.59
2023-04-12T09:38:21.740Z,11.52
2023-04-12T09:40:25.326Z,11.49
2023-04-12T09:42:33.081Z,11.62
2023-04-12T09:44:39.134Z,11.55
2023-04-12T09:46:51.989Z,11.50
2023-04-12T09:48:56.141Z,11.52
2023-04-12T09:51:00.256Z,11.53
2023-04-12T09:53:04.869Z,11.58
2023-04-12T09:55:11.289Z,11.52
2023-04-12T09:57:14.703Z,11.60
2023-04-12T09:59:19.006Z,11.51
2023-04-12T10:01:25.244Z,11.58
2023-04-12T10:03:28.236Z,11.60
2023-04-12T10:05:31.426Z,11.55
2023-04-12T10:07:37.567Z,11.50
2023-04-12T10:09:41.561Z,11.45
2023-04-12T10:11:46.390Z,11.68
2023-04-12T10:13:50.527Z,11.60
2023-04-12T10:15:54.511Z,11.59
2023-04-12T10:17:58.726Z,11.55
2023-04-12T10:20:01.819Z,11.68
2023-04-12T10:22:04.614Z,11.70
2023-04-12T10:24:07.807Z,11.78
2023-04-12T10:26:10.841Z,11.79
2023-04-12T10:28:18.568Z,11.86
2023-04-12T10:30:25.755Z,11.76
2023-04-12T10:32:28.633Z,11.83
2023-04-12T10:34:36.939Z,11.92
2023-04-12T10:36:53.262Z,12.04
2023-04-12T10:39:10.386Z,12.00
2023-04-12T10:41:24.048Z,12.15
2023-04-12T10:43:30.144Z,12.32
2023-04-12T10:45:37.414Z,12.40
2023-04-12T10:47:58.905Z,12.40
2023-04-12T10:50:24.809Z,12.41
2023-04-12T10:52:27.715Z,12.28
2023-04-12T10:54:36.176Z,12.27
2023-04-12T10:56:40.627Z,12.08
2023-04-12T10:59:02.720Z,12.10
2023-04-12T11:01:13.136Z,12.15
2023-04-12T11:03:18.161Z,12.33
2023-04-12T11:05:22.729Z,12.24
2023-04-12T11:07:42.407Z,12.29
2023-04-12T11:10:04.161Z,12.27
2023-04-12T11:12:14.054Z,12.34
2023-04-12T11:14:17.713Z,12.35
2023-04-12T11:16:20.659Z,12.22
2023-04-12T11:18:23.945Z,12.30
2023-04-12T11:20:28.666Z,12.20
2023-04-12T11:22:33.869Z,12.09
2023-04-12T11:24:38.915Z,12.13
2023-04-12T11:26:41.961Z,12.19
2023-04-12T11:28:44.754Z,12.20
2023-04-12T11:30:54.610Z,12.19
2023-04-12T11:32:57.507Z,12.16
2023-04-12T11:35:00.479Z,11.94
2023-04-12T11:37:10.441Z,12.18
2023-04-12T11:39:13.381Z,12.31
2023-04-12T11:41:16.774Z,12.50
2023-04-12T11:43:20.534Z,12.52
2023-04-12T11:45:23.352Z,12.48
2023-04-12T11:47:27.179Z,12.48
2023-04-12T11:49:30.167Z,12.53
2023-04-12T11:51:33.886Z,12.53
2023-04-12T11:53:38.424Z,12.52
2023-04-12T11:55:41.475Z,12.60
2023-04-12T11:57:44.260Z,12.51
2023-04-12T11:59:48.150Z,12.46
2023-04-12T12:01:52.393Z,12.46
2023-04-12T12:03:56.160Z,12.59
2023-04-12T12:06:00.659Z,12.63
2023-04-12T12:08:07.289Z,12.68
2023-04-12T12:10:16.363Z,12.73
2023-04-12T12:12:25.107Z,12.74
2023-04-12T12:14:29.105Z,12.63
2023-04-12T12:16:32.269Z,12.67
2023-04-12T12:18:40.880Z,12.67
2023-04-12T12:20:48.574Z,12.75
2023-04-12T12:22:51.744Z,12.87
2023-04-12T12:24:57.653Z,12.79
2023-04-12T12:27:04.033Z,12.90
2023-04-12T12:29:09.192Z,12.88
2023-04-12T12:31:12.569Z,12.94
2023-04-12T12:33:21.894Z,13.02
2023-04-12T12:35:29.789Z,12.93
2023-04-12T12:37:32.645Z,12.91
2023-04-12T12:39:36.258Z,12.84
2023-04-12T12:41:39.549Z,12.81
2023-04-12T12:43:47.053Z,12.80
2023-04-12T12:45:49.877Z,12.68
2023-04-12T12:47:54.757Z,12.67
2023-04-12T12:49:57.743Z,12.66
2023-04-12T12:52:01.155Z,12.69
2023-04-12T12:54:03.986Z,12.65
2023-04-12T12:56:07.727Z,12.71
2023-04-12T12:58:10.524Z,12.65
2023-04-12T13:00:16.136Z,12.61
2023-04-12T13:02:19.855Z,12.76
2023-04-12T13:04:22.951Z,12.79
2023-04-12T13:06:27.092Z,12.89
2023-04-12T13:08:34.333Z,12.95
2023-04-12T13:10:37.348Z,13.03
2023-04-12T13:12:40.347Z,13.14
2023-04-12T13:14:43.244Z,13.06
2023-04-12T13:16:49.123Z,12.90
2023-04-12T13:18:52.185Z,12.96
2023-04-12T13:20:54.960Z,12.96
2023-04-12T13:22:58.189Z,13.06
2023-04-12T13:25:01.885Z,13.01
2023-04-12T13:27:04.806Z,13.01
2023-04-12T13:29:07.624Z,13.09
2023-04-12T13:31:10.513Z,13.04
2023-04-12T13:33:19.143Z,12.99
2023-04-12T13:36:14.293Z,13.01
2023-04-12T13:38:17.169Z,12.74
2023-04-12T13:40:20.388Z,12.57
2023-04-12T13:42:24.371Z,12.45
2023-04-12T13:44:27.483Z,12.41
2023-04-12T13:46:30.592Z,12.54
2023-04-12T13:48:34.887Z,12.65
2023-04-12T13:50:37.906Z,12.80
2023-04-12T13:52:40.755Z,12.88
2023-04-12T13:54:44.042Z,12.74
2023-04-12T13:56:46.898Z,12.70
2023-04-12T13:58:49.832Z,12.84
2023-04-12T14:00:53.926Z,13.03
2023-04-12T14:02:58.041Z,13.08
2023-04-12T14:05:02.632Z,13.04
2023-04-12T14:07:05.446Z,12.88
2023-04-12T14:09:08.827Z,12.75
2023-04-12T14:11:11.674Z,12.63
2023-04-12T14:13:14.604Z,12.55
2023-04-12T14:15:17.662Z,12.52
2023-04-12T14:17:20.540Z,12.57
2023-04-12T14:19:24.134Z,12.55
2023-04-12T14:21:29.254Z,12.54
2023-04-12T14:23:32.057Z,12.46
2023-04-12T14:25:36.986Z,12.51
2023-04-12T14:27:39.896Z,12.45
2023-04-12T14:29:43.078Z,12.49
2023-04-12T14:31:46.131Z,12.48
2023-04-12T14:33:48.917Z,12.43
2023-04-12T14:35:53.525Z,12.49
2023-04-12T14:37:57.917Z,12.59
2023-04-12T14:40:00.787Z,12.62
2023-04-12T14:42:03.846Z,12.63
2023-04-12T14:44:06.704Z,12.61
2023-04-12T14:46:09.630Z,12.69
2023-04-12T14:48:12.496Z,12.73
2023-04-12T14:50:16.017Z,12.72
2023-04-12T14:52:18.973Z,12.72
2023-04-12T14:54:23.196Z,12.79
2023-04-12T14:56:30.203Z,12.66
2023-04-12T14:58:35.291Z,12.68
2023-04-12T15:00:38.314Z,12.66
2023-04-12T15:02:41.694Z,12.78
2023-04-12T15:04:44.744Z,12.87
2023-04-12T15:06:47.750Z,12.95
2023-04-12T15:08:55.040Z,13.09
2023-04-12T15:10:59.403Z,13.13
2023-04-12T15:13:02.184Z,13.18
2023-04-12T15:15:06.613Z,13.16
2023-04-12T15:17:10.707Z,13.13
2023-04-12T15:19:19.172Z,13.01
2023-04-12T15:21:24.232Z,12.97
2023-04-12T15:23:27.085Z,13.01
2023-04-12T15:25:30.936Z,12.97
2023-04-12T15:27:35.116Z,12.88
2023-04-12T15:29:37.934Z,12.90
2023-04-12T15:31:41.151Z,12.92
2023-04-12T15:33:44.202Z,12.91
2023-04-12T15:35:47.422Z,12.86
2023-04-12T15:37:51.004Z,12.82
2023-04-12T15:39:54.961Z,12.80
2023-04-12T15:41:57.804Z,12.92
2023-04-12T15:44:02.111Z,13.08
2023-04-12T15:46:05.432Z,13.34
2023-04-12T15:48:08.681Z,13.44
2023-04-12T15:50:12.764Z,13.50
2023-04-12T15:52:16.562Z,13.55
2023-04-12T15:54:19.497Z,13.76
2023-04-12T15:56:24.417Z,13.99
2023-04-12T15:58:27.932Z,14.28
2023-04-12T16:00:32.132Z,14.46
2023-04-12T16:02:35.137Z,14.47
2023-04-12T16:04:39.200Z,14.65
2023-04-12T16:06:42.646Z,14.64
2023-04-12T16:08:46.791Z,14.80
2023-04-12T16:10:50.083Z,14.78
2023-04-12T16:12:54.502Z,14.89
2023-04-12T16:14:58.094Z,14.87
2023-04-12T16:17:02.308Z,14.79
2023-04-12T16:19:05.079Z,14.63
2023-04-12T16:21:08.016Z,14.89
2023-04-12T16:23:11.377Z,14.80
2023-04-12T16:25:14.659Z,14.77
2023-04-12T16:27:17.475Z,14.55
2023-04-12T16:29:20.336Z,14.63
2023-04-12T16:31:25.325Z,14.63
2023-04-12T16:33:29.668Z,14.81
2023-04-12T16:35:32.633Z,14.82
2023-04-12T16:37:35.712Z,14.85
2023-04-12T16:39:38.560Z,14.90
2023-04-12T16:41:41.573Z,14.95
2023-04-12T16:43:45.556Z,14.93
2023-04-12T16:45:49.272Z,14.83
2023-04-12T16:47:52.163Z,14.77
2023-04-12T16:49:57.308Z,14.73
2023-04-12T16:52:01.303Z,14.76
2023-04-12T16:54:04.259Z,14.62
2023-04-12T16:56:07.487Z,14.47
2023-04-12T16:58:11.329Z,14.38
2023-04-12T17:00:20.576Z,14.21
2023-04-12T17:02:24.570Z,14.09
2023-04-12T17:04:27.794Z,14.16
2023-04-12T17:06:33.873Z,14.18
2023-04-12T17:08:37.041Z,13.98
2023-04-12T17:10:40.081Z,13.87
2023-04-12T17:12:42.936Z,13.84
2023-04-12T17:14:45.733Z,13.83
2023-04-12T17:16:48.486Z,13.79
2023-04-12T17:18:51.334Z,13.75
2023-04-12T17:20:54.135Z,13.67
2023-04-12T17:22:58.904Z,13.66
2023-04-12T17:25:01.725Z,13.66
2023-04-12T17:27:05.349Z,13.64
2023-04-12T17:29:08.544Z,13.64
2023-04-12T17:31:11.457Z,13.63
2023-04-12T17:33:17.830Z,13.61
2023-04-12T17:35:21.720Z,13.51
2023-04-12T17:37:24.887Z,13.50
2023-04-12T17:39:29.010Z,13.53
2023-04-12T17:41:32.163Z,13.53
2023-04-12T17:43:34.973Z,13.66
2023-04-12T17:45:37.840Z,13.73
2023-04-12T17:47:40.951Z,13.65
2023-04-12T17:49:43.977Z,13.71
2023-04-12T17:51:46.724Z,13.74
2023-04-12T17:53:50.221Z,13.77
2023-04-12T17:55:54.449Z,13.74
2023-04-12T17:57:57.979Z,13.71
2023-04-12T18:00:01.075Z,13.65
2023-04-12T18:02:04.114Z,13.66
2023-04-12T18:04:07.383Z,13.64
2023-04-12T18:06:10.318Z,13.65
2023-04-12T18:08:13.335Z,13.64
2023-04-12T18:10:21.187Z,13.58
2023-04-12T18:12:25.989Z,13.52
2023-04-12T18:14:29.418Z,13.45
2023-04-12T18:16:32.890Z,13.34
2023-04-12T18:18:35.751Z,13.32
2023-04-12T18:20:38.598Z,13.25
2023-04-12T18:22:42.211Z,13.22
2023-04-12T18:24:46.043Z,13.12
2023-04-12T18:26:48.874Z,13.06
2023-04-12T18:28:53.052Z,13.00
2023-04-12T18:30:57.284Z,12.89
2023-04-12T18:33:02.133Z,12.75
2023-04-12T18:35:07.098Z,12.79
2023-04-12T18:37:09.987Z,12.82
2023-04-12T18:39:12.801Z,12.86
2023-04-12T18:41:16.279Z,12.86
2023-04-12T18:43:19.084Z,12.84
2023-04-12T18:45:23.541Z,12.82
2023-04-12T18:47:27.120Z,12.81
2023-04-12T18:49:31.188Z,12.76
2023-04-12T18:51:34.106Z,12.72
2023-04-12T18:53:36.976Z,12.70
2023-04-12T18:55:39.778Z,12.61
2023-04-12T18:57:42.575Z,12.59
2023-04-12T18:59:47.780Z,12.54
2023-04-12T19:02:00.643Z,12.57
2023-04-12T19:04:05.071Z,12.61
2023-04-12T19:06:08.802Z,12.67
2023-04-12T19:08:13.586Z,12.64
2023-04-12T19:10:17.014Z,12.46
2023-04-12T19:12:22.005Z,12.22
2023-04-12T19:14:25.319Z,12.20
2023-04-12T19:16:28.356Z,11.97
2023-04-12T19:18:32.461Z,11.95
2023-04-12T19:20:35.447Z,11.79
2023-04-12T19:22:38.292Z,11.58
2023-04-12T19:24:41.275Z,11.54
2023-04-12T19:26:47.010Z,11.72
2023-04-12T19:28:52.297Z,11.59
2023-04-12T19:30:55.196Z,11.41
2023-04-12T19:32:58.885Z,11.30
2023-04-12T19:35:03.322Z,11.34
2023-04-12T19:37:06.201Z,11.34
2023-04-12T19:39:09.164Z,11.37
2023-04-12T19:41:12.365Z,11.37
2023-04-12T19:43:16.412Z,11.35
2023-04-12T19:45:19.475Z,11.31
2023-04-12T19:47:22.357Z,11.35
2023-04-12T19:49:25.966Z,11.35
2023-04-12T19:51:31.035Z,11.38
2023-04-12T19:53:34.056Z,11.39
2023-04-12T19:55:36.908Z,11.38
2023-04-12T19:57:39.943Z,11.35
2023-04-12T19:59:42.900Z,11.33
2023-04-12T20:01:48.732Z,11.33
2023-04-12T20:03:51.560Z,11.31
2023-04-12T20:05:54.568Z,11.27
2023-04-12T20:08:01.881Z,11.26
2023-04-12T20:10:06.121Z,11.26
2023-04-12T20:12:09.214Z,11.25
2023-04-12T20:14:14.547Z,11.21
2023-04-12T20:16:17.571Z,11.17
2023-04-12T20:18:20.553Z,11.14
2023-04-12T20:20:23.485Z,11.11
2023-04-12T20:22:26.280Z,11.09
2023-04-12T20:24:36.818Z,11.06
2023-04-12T20:26:39.643Z,10.99
2023-04-12T20:28:44.812Z,10.96
2023-04-12T20:30:48.419Z,10.91
2023-04-12T20:32:54.197Z,10.90
2023-04-12T20:34:58.192Z,10.87
2023-04-12T20:37:00.999Z,10.85
2023-04-12T20:39:05.550Z,10.78
2023-04-12T20:41:10.671Z,10.73
2023-04-12T20:43:13.459Z,10.71
2023-04-12T20:45:17.670Z,10.70
2023-04-12T20:47:21.044Z,10.71
2023-04-12T20:49:27.658Z,10.71
2023-04-12T20:51:30.988Z,10.68
2023-04-12T20:53:34.893Z,10.71
2023-04-12T20:55:38.070Z,10.70
2023-04-12T20:57:43.720Z,10.68
2023-04-12T20:59:48.451Z,10.67
2023-04-12T21:01:53.337Z,10.67
2023-04-12T21:03:58.407Z,10.56
2023-04-12T21:06:03.095Z,10.44
2023-04-12T21:08:07.479Z,10.48
2023-04-12T21:10:13.270Z,10.59
2023-04-12T21:12:18.224Z,10.63
2023-04-12T21:14:23.734Z,10.67
2023-04-12T21:16:28.598Z,10.66
2023-04-12T21:18:34.094Z,10.69
2023-04-12T21:20:36.950Z,10.67
2023-04-12T21:22:40.956Z,10.63
2023-04-12T21:24:44.558Z,10.57
2023-04-12T21:26:56.284Z,10.55
2023-04-12T21:28:59.283Z,10.49
2023-04-12T21:31:03.939Z,10.48
2023-04-12T21:33:06.924Z,10.48
2023-04-12T21:35:11.077Z,10.35
2023-04-12T21:37:13.860Z,10.23
2023-04-12T21:39:16.944Z,10.18
2023-04-12T21:41:20.120Z,10.27
2023-04-12T21:43:23.029Z,10.39
2023-04-12T21:45:27.369Z,10.16
2023-04-12T21:47:32.058Z,10.19
2023-04-12T21:49:35.253Z,10.17
2023-04-12T21:51:38.112Z,10.12
2023-04-12T21:53:40.870Z,10.18
2023-04-12T21:55:43.644Z,10.22
2023-04-12T21:57:46.455Z,10.10
2023-04-12T21:59:49.253Z,10.11
2023-04-12T22:01:52.182Z,10.08
2023-04-12T22:03:56.685Z,10.10
2023-04-12T22:06:04.742Z,10.05
2023-04-12T22:08:08.257Z,10.08
2023-04-12T22:10:11.893Z,10.12
2023-04-12T22:12:14.882Z,10.11
2023-04-12T22:14:17.867Z,10.09
2023-04-12T22:16:22.958Z,10.16
2023-04-12T22:18:25.856Z,10.05
2023-04-12T22:20:31.060Z,9.98
2023-04-12T22:22:34.629Z,9.95
2023-04-12T22:24:38.619Z,9.95
2023-04-12T22:26:41.399Z,10.09
2023-04-12T22:28:44.298Z,10.19
2023-04-12T22:30:48.394Z,10.31
2023-04-12T22:32:52.468Z,10.31
2023-04-12T22:35:05.279Z,10.21
2023-04-12T22:37:12.211Z,10.28
2023-04-12T22:39:15.575Z,10.20
2023-04-12T22:41:19.154Z,10.20
2023-04-12T22:43:22.711Z,10.10
2023-04-12T22:45:25.610Z,10.08
2023-04-12T22:47:28.518Z,10.11
2023-04-12T22:49:31.323Z,10.04
2023-04-12T22:51:34.107Z,10.00
2023-04-12T22:53:38.758Z,10.04
2023-04-12T22:55:42.111Z,10.10
2023-04-12T22:57:45.072Z,10.05
2023-04-12T22:59:47.867Z,10.11
2023-04-12T23:01:50.884Z,10.06
2023-04-12T23:03:54.109Z,10.02
2023-04-12T23:05:56.989Z,10.05
2023-04-12T23:08:00.583Z,9.99
2023-04-12T23:10:04.978Z,9.95
2023-04-12T23:12:07.996Z,9.90
2023-04-12T23:14:11.055Z,10.00
2023-04-12T23:16:13.860Z,9.91
2023-04-12T23:18:16.757Z,9.78
2023-04-12T23:20:20.365Z,9.61
2023-04-12T23:22:48.611Z,9.64
2023-04-12T23:24:57.218Z,9.68
2023-04-12T23:27:02.909Z,9.62
2023-04-12T23:29:05.653Z,9.65
2023-04-12T23:31:09.040Z,9.63
2023-04-12T23:33:12.320Z,9.59
2023-04-12T23:35:15.670Z,9.59
2023-04-12T23:37:19.557Z,9.62
2023-04-12T23:39:22.804Z,9.61
2023-04-12T23:41:25.684Z,9.61
2023-04-12T23:43:30.263Z,9.53
2023-04-12T23:45:34.229Z,9.47
2023-04-12T23:47:39.333Z,9.44
2023-04-12T23:49:42.198Z,9.42
2023-04-12T23:51:45.906Z,9.45
2023-04-12T23:53:48.722Z,9.52
2023-04-12T23:55:53.409Z,9.38
2023-04-12T23:57:56.218Z,9.36
